Time;durP1;ratioP1;P1;durP2;ratioP2;P2;SDS_P1;SDS_P2;PMS_P1;PMS_P2;Temp;Humidity;BMP_temperature;BMP_pressure;BME280_temperature;BME280_humidity;BME280_pressure;Samples;Min_cycle;Max_cycle;Signal;HPM_P1;HPM_P2
2021/06/08 00:00:21;;;;;;;1.40;0.52;;;14.40;99.90;;;;;;4950102;29;20114;-80
2021/06/08 00:02:47;;;;;;;1.40;0.50;;;14.40;99.90;;;;;;4948642;29;20059;-80
2021/06/08 00:05:13;;;;;;;1.30;0.50;;;14.30;99.90;;;;;;4948560;29;20456;-80
2021/06/08 00:07:42;;;;;;;1.67;0.50;;;14.20;99.90;;;;;;4964866;23;20082;-79
2021/06/08 00:10:08;;;;;;;2.22;0.70;;;14.20;99.90;;;;;;4968046;28;20039;-80
2021/06/08 00:12:34;;;;;;;1.77;0.63;;;14.20;99.90;;;;;;4950618;29;20023;-81
2021/06/08 00:15:00;;;;;;;1.70;0.55;;;14.10;99.90;;;;;;4968021;28;20293;-81
2021/06/08 00:17:26;;;;;;;1.98;0.57;;;14.00;99.90;;;;;;4966553;29;20047;-82
2021/06/08 00:19:51;;;;;;;3.83;0.80;;;14.10;99.90;;;;;;4968117;28;20027;-80
2021/06/08 00:22:17;;;;;;;1.88;0.80;;;14.00;99.90;;;;;;4966988;29;20047;-81
2021/06/08 00:24:43;;;;;;;1.80;0.55;;;13.90;99.90;;;;;;4966375;28;20050;-81
2021/06/08 00:27:09;;;;;;;5.82;1.00;;;13.90;99.90;;;;;;4948552;29;20079;-81
2021/06/08 00:29:34;;;;;;;2.60;0.70;;;13.80;99.90;;;;;;4947551;29;20070;-79
2021/06/08 00:32:00;;;;;;;1.77;0.68;;;13.90;99.90;;;;;;4948492;29;20032;-79
2021/06/08 00:34:25;;;;;;;1.52;0.60;;;13.80;99.90;;;;;;4948565;29;20040;-79
2021/06/08 00:36:51;;;;;;;3.78;1.10;;;13.80;99.90;;;;;;4948401;29;20048;-81
2021/06/08 00:39:20;;;;;;;1.52;0.70;;;13.70;99.90;;;;;;4948195;29;20132;-79
2021/06/08 00:41:46;;;;;;;3.08;0.88;;;13.70;99.90;;;;;;4948952;29;20071;-81
2021/06/08 00:44:15;;;;;;;1.55;0.70;;;13.70;99.90;;;;;;4947291;29;20412;-81
2021/06/08 00:46:42;;;;;;;2.13;1.00;;;13.70;99.90;;;;;;4948185;29;20042;-81
2021/06/08 00:49:08;;;;;;;3.40;0.95;;;13.70;99.90;;;;;;4948651;29;20027;-79
2021/06/08 00:51:34;;;;;;;2.03;0.90;;;13.70;99.90;;;;;;4967357;28;20031;-80
2021/06/08 00:54:07;;;;;;;3.28;1.17;;;13.70;99.90;;;;;;4965743;28;20031;-82
2021/06/08 00:56:34;;;;;;;2.00;1.10;;;13.70;99.90;;;;;;4965921;29;20047;-81
2021/06/08 00:59:00;;;;;;;2.20;1.20;;;13.70;99.90;;;;;;4965941;29;20059;-80
2021/06/08 01:01:26;;;;;;;2.05;0.95;;;13.60;99.90;;;;;;4967178;28;20033;-80
2021/06/08 01:03:52;;;;;;;2.67;1.05;;;13.60;99.90;;;;;;4967077;28;20086;-79
2021/06/08 01:06:18;;;;;;;3.47;1.80;;;13.50;99.90;;;;;;4965784;29;20098;-80
2021/06/08 01:08:44;;;;;;;3.15;1.60;;;13.50;99.90;;;;;;4966662;28;20142;-80
2021/06/08 01:11:10;;;;;;;2.65;1.30;;;13.40;99.90;;;;;;4965971;29;20122;-80
2021/06/08 01:13:35;;;;;;;3.35;1.30;;;13.40;99.90;;;;;;4966931;29;20058;-79
2021/06/08 01:16:01;;;;;;;2.85;1.20;;;13.40;99.90;;;;;;4965565;29;20082;-81
2021/06/08 01:18:27;;;;;;;2.75;1.50;;;13.40;99.90;;;;;;4966924;28;20054;-80
2021/06/08 01:21:10;;;;;;;2.78;1.30;;;13.20;99.90;;;;;;4967006;29;20035;-80
2021/06/08 01:23:37;;;;;;;3.92;2.10;;;13.30;99.90;;;;;;4981665;28;20023;-80
2021/06/08 01:26:04;;;;;;;2.10;1.15;;;13.30;99.90;;;;;;4967121;28;20039;-80
2021/06/08 01:28:32;;;;;;;3.22;1.65;;;13.30;99.90;;;;;;4967136;28;20118;-80
2021/06/08 01:31:02;;;;;;;2.90;1.63;;;13.30;99.90;;;;;;4968003;28;20032;-80
2021/06/08 01:33:28;;;;;;;4.28;1.80;;;13.10;99.90;;;;;;4967350;28;20408;-80
2021/06/08 01:35:54;;;;;;;3.63;2.10;;;13.10;99.90;;;;;;4968156;28;20031;-80
2021/06/08 01:38:21;;;;;;;3.33;1.65;;;13.10;99.90;;;;;;4970248;28;20027;-80
2021/06/08 01:40:49;;;;;;;4.57;2.03;;;13.10;99.90;;;;;;4970275;28;20391;-80
2021/06/08 01:43:16;;;;;;;3.95;1.70;;;13.10;99.90;;;;;;4970237;28;20043;-79
2021/06/08 01:45:47;;;;;;;2.75;1.05;;;13.10;99.90;;;;;;4970255;28;20455;-80
2021/06/08 01:48:13;;;;;;;4.20;1.92;;;12.90;99.90;;;;;;4970172;28;20089;-81
2021/06/08 01:50:39;;;;;;;3.92;2.10;;;13.00;99.90;;;;;;4970014;28;20110;-81
2021/06/08 01:53:34;;;;;;;3.65;2.70;;;13.00;99.90;;;;;;4984978;28;20050;-80
2021/06/08 01:56:05;;;;;;;3.03;2.08;;;13.00;99.90;;;;;;4969897;28;20035;-80
2021/06/08 01:58:58;;;;;;;4.07;2.45;;;13.00;99.90;;;;;;4968966;29;20050;-80
2021/06/08 02:01:33;;;;;;;4.68;2.80;;;12.90;99.90;;;;;;4968690;29;20046;-80
2021/06/08 02:04:06;;;;;;;5.95;2.72;;;12.90;99.90;;;;;;4969852;29;20079;-79
2021/06/08 02:06:59;;;;;;;3.08;2.20;;;12.90;99.90;;;;;;4968522;29;20027;-80
2021/06/08 02:09:42;;;;;;;3.75;2.88;;;12.80;99.90;;;;;;4962737;28;20116;-80
2021/06/08 02:12:15;;;;;;;4.97;3.42;;;12.80;99.90;;;;;;4968603;29;20038;-80
2021/06/08 02:14:58;;;;;;;5.20;3.20;;;12.80;99.90;;;;;;4968251;29;20035;-80
2021/06/08 02:17:32;;;;;;;3.78;2.50;;;12.80;99.90;;;;;;4969590;28;20050;-80
2021/06/08 02:20:07;;;;;;;4.22;3.40;;;12.80;99.90;;;;;;4968278;29;20035;-81
2021/06/08 02:22:38;;;;;;;5.47;3.33;;;12.70;99.90;;;;;;4984415;28;20089;-80
2021/06/08 02:25:06;;;;;;;3.88;2.80;;;12.60;99.90;;;;;;4969182;28;20031;-80
2021/06/08 02:27:33;;;;;;;2.92;2.22;;;12.50;99.90;;;;;;4969520;28;20031;-80
2021/06/08 02:30:00;;;;;;;3.33;2.78;;;12.50;99.90;;;;;;4969487;28;20104;-80
2021/06/08 02:32:29;;;;;;;4.43;3.13;;;12.40;99.90;;;;;;4969238;28;20027;-80
2021/06/08 02:34:57;;;;;;;4.47;3.27;;;12.40;99.90;;;;;;4969216;28;20055;-79
2021/06/08 02:37:24;;;;;;;4.82;3.83;;;12.30;99.90;;;;;;4968941;28;20307;-79
2021/06/08 02:39:50;;;;;;;4.00;3.33;;;12.40;99.90;;;;;;4969056;28;20050;-80
2021/06/08 02:42:18;;;;;;;5.53;3.58;;;12.30;99.90;;;;;;4969280;28;20035;-79
2021/06/08 02:44:46;;;;;;;4.93;3.95;;;12.30;99.90;;;;;;4969012;28;20035;-80
2021/06/08 02:47:12;;;;;;;4.70;3.97;;;12.20;99.90;;;;;;4967870;28;20043;-80
2021/06/08 02:49:38;;;;;;;6.05;3.63;;;12.20;99.90;;;;;;4967584;29;20028;-80
2021/06/08 02:52:05;;;;;;;5.35;4.05;;;12.10;99.90;;;;;;4968995;28;20055;-80
2021/06/08 02:54:51;;;;;;;5.25;3.80;;;12.10;99.90;;;;;;4936096;29;20134;-80
2021/06/08 02:57:19;;;;;;;4.95;3.67;;;12.10;99.90;;;;;;4968638;28;20555;-79
2021/06/08 02:59:47;;;;;;;5.55;4.45;;;12.00;99.90;;;;;;4967380;29;20051;-80
2021/06/08 03:02:16;;;;;;;6.43;4.35;;;12.00;99.90;;;;;;4967439;28;20039;-80
2021/06/08 03:04:57;;;;;;;5.32;4.25;;;12.00;99.90;;;;;;4967258;29;20091;-80
2021/06/08 03:07:24;;;;;;;6.60;4.43;;;11.90;99.90;;;;;;4983273;28;20106;-80
2021/06/08 03:09:56;;;;;;;4.13;3.72;;;11.90;99.90;;;;;;4968528;28;20031;-80
2021/06/08 03:12:28;;;;;;;6.55;5.13;;;11.90;99.90;;;;;;4968531;29;20170;-80
2021/06/08 03:14:56;;;;;;;7.88;5.05;;;11.90;99.90;;;;;;4967251;29;20027;-80
2021/06/08 03:17:26;;;;;;;7.63;5.03;;;11.90;99.90;;;;;;4983344;28;20039;-79
2021/06/08 03:20:03;;;;;;;8.38;5.47;;;11.90;99.90;;;;;;4968501;28;20039;-80
2021/06/08 03:22:30;;;;;;;7.15;5.20;;;11.80;99.90;;;;;;4967119;29;20094;-79
2021/06/08 03:24:58;;;;;;;8.18;6.03;;;11.80;99.90;;;;;;4968002;28;20070;-79
2021/06/08 03:27:26;;;;;;;8.82;5.70;;;11.90;99.90;;;;;;4967087;29;20067;-80
2021/06/08 03:29:53;;;;;;;7.47;5.63;;;11.80;99.90;;;;;;4968273;28;20039;-80
2021/06/08 03:32:19;;;;;;;6.78;5.95;;;11.90;99.90;;;;;;4968189;28;20063;-80
2021/06/08 03:34:46;;;;;;;9.00;6.30;;;11.90;99.90;;;;;;4968280;28;20039;-80
2021/06/08 03:37:12;;;;;;;6.82;5.63;;;11.90;99.90;;;;;;4967347;28;20106;-80
2021/06/08 03:39:40;;;;;;;8.63;5.70;;;11.90;99.90;;;;;;4966259;28;20039;-79
2021/06/08 03:42:08;;;;;;;11.60;6.88;;;11.90;99.90;;;;;;4965862;28;20042;-80
2021/06/08 03:44:35;;;;;;;7.60;5.95;;;11.90;99.90;;;;;;4966042;28;20034;-80
2021/06/08 03:47:01;;;;;;;8.32;5.95;;;11.90;99.90;;;;;;4966071;28;20047;-81
2021/06/08 03:49:27;;;;;;;8.63;6.50;;;11.80;99.90;;;;;;4982088;28;20027;-79
2021/06/08 03:51:54;;;;;;;8.45;6.85;;;11.90;99.90;;;;;;4967209;28;20023;-80
2021/06/08 03:54:21;;;;;;;6.63;5.75;;;11.90;99.90;;;;;;4967285;28;20122;-79
2021/06/08 03:56:50;;;;;;;9.07;7.20;;;11.90;99.90;;;;;;4965724;28;20062;-80
2021/06/08 03:59:18;;;;;;;9.85;6.57;;;11.90;99.90;;;;;;4965819;28;20031;-79
2021/06/08 04:01:45;;;;;;;10.23;6.35;;;11.90;99.90;;;;;;4981826;28;20070;-80
2021/06/08 04:04:12;;;;;;;7.68;6.75;;;12.00;99.90;;;;;;4966980;28;20031;-79
2021/06/08 04:06:39;;;;;;;7.78;5.90;;;11.90;99.90;;;;;;4966950;28;20034;-79
2021/06/08 04:09:06;;;;;;;8.48;6.80;;;12.00;99.90;;;;;;4967078;28;20486;-78
2021/06/08 04:11:32;;;;;;;8.93;6.80;;;12.10;99.90;;;;;;4965910;29;20062;-79
2021/06/08 04:13:58;;;;;;;10.35;8.50;;;12.10;99.90;;;;;;4966763;28;20027;-78
2021/06/08 04:16:24;;;;;;;10.25;7.32;;;12.10;99.90;;;;;;4967037;28;20039;-79
2021/06/08 04:18:50;;;;;;;10.00;6.00;;;12.10;99.90;;;;;;4967190;28;20023;-80
2021/06/08 04:21:21;;;;;;;9.10;7.07;;;12.20;99.90;;;;;;4959867;28;20078;-77
2021/06/08 04:23:57;;;;;;;8.60;7.03;;;12.30;99.90;;;;;;4966753;28;20035;-80
2021/06/08 04:26:23;;;;;;;10.18;8.15;;;12.40;99.90;;;;;;4967693;28;20035;-80
2021/06/08 04:28:49;;;;;;;10.15;8.35;;;12.50;99.90;;;;;;4986237;28;20030;-80
2021/06/08 04:31:20;;;;;;;10.70;9.23;;;12.60;99.90;;;;;;4985908;28;20066;-81
2021/06/08 04:33:46;;;;;;;10.65;7.95;;;12.60;99.90;;;;;;4993083;23;20085;-82
2021/06/08 04:36:13;;;;;;;10.10;8.82;;;12.70;99.90;;;;;;4985993;28;20039;-81
2021/06/08 04:38:39;;;;;;;9.18;7.63;;;12.90;99.90;;;;;;4985238;28;20054;-80
2021/06/08 04:41:05;;;;;;;11.32;7.70;;;13.10;99.90;;;;;;4986553;28;20086;-80
2021/06/08 04:43:30;;;;;;;11.50;8.38;;;13.20;99.90;;;;;;4986353;28;20035;-80
2021/06/08 04:46:02;;;;;;;10.90;8.48;;;13.40;99.90;;;;;;4986258;28;20035;-80
2021/06/08 04:48:28;;;;;;;11.95;8.30;;;13.50;99.90;;;;;;4983299;28;20117;-81
2021/06/08 04:50:56;;;;;;;10.13;8.05;;;13.60;99.90;;;;;;4981801;28;20051;-81
2021/06/08 04:53:23;;;;;;;11.07;8.15;;;13.80;99.90;;;;;;4966944;28;20035;-80
2021/06/08 04:55:50;;;;;;;12.93;8.73;;;14.00;99.90;;;;;;4992294;23;20054;-81
2021/06/08 04:58:16;;;;;;;10.27;8.60;;;14.10;99.90;;;;;;4984681;28;20084;-81
2021/06/08 05:00:51;;;;;;;9.50;7.93;;;14.20;99.90;;;;;;4986094;28;20054;-81
2021/06/08 05:03:21;;;;;;;9.55;8.18;;;14.30;99.90;;;;;;4984774;28;20039;-81
2021/06/08 05:06:09;;;;;;;9.57;8.02;;;14.40;99.90;;;;;;4984555;28;20026;-81
2021/06/08 05:08:40;;;;;;;10.50;8.02;;;14.50;99.90;;;;;;4967001;28;20066;-80
2021/06/08 05:11:16;;;;;;;9.30;7.82;;;14.50;99.90;;;;;;4969703;28;20038;-80
2021/06/08 05:13:46;;;;;;;9.73;7.28;;;14.70;99.90;;;;;;4971432;28;20047;-80
2021/06/08 05:16:13;;;;;;;9.23;8.27;;;14.80;99.90;;;;;;4970559;28;20054;-80
2021/06/08 05:18:41;;;;;;;9.07;8.18;;;15.00;99.90;;;;;;4971312;28;20035;-81
2021/06/08 05:21:10;;;;;;;9.38;7.57;;;15.10;99.90;;;;;;5005695;28;20034;-81
2021/06/08 05:23:36;;;;;;;11.13;8.82;;;15.10;99.90;;;;;;5006408;28;20517;-81
2021/06/08 05:26:03;;;;;;;13.05;10.30;;;15.20;99.90;;;;;;4979576;28;20038;-80
2021/06/08 05:28:29;;;;;;;10.70;8.02;;;15.30;99.90;;;;;;4986663;28;20066;-81
2021/06/08 05:30:55;;;;;;;9.30;7.72;;;15.50;99.90;;;;;;4986771;28;20184;-81
2021/06/08 05:33:23;;;;;;;10.30;9.20;;;15.50;99.90;;;;;;4969946;28;20487;-81
2021/06/08 05:35:53;;;;;;;10.85;8.00;;;15.60;99.90;;;;;;4970140;28;20186;-80
2021/06/08 05:38:31;;;;;;;10.55;7.72;;;15.80;99.90;;;;;;4954533;28;20082;-81
2021/06/08 05:41:00;;;;;;;9.27;7.85;;;15.80;99.90;;;;;;4986527;28;20410;-81
2021/06/08 05:43:26;;;;;;;9.37;7.03;;;15.90;99.90;;;;;;4970270;28;20039;-81
2021/06/08 05:45:52;;;;;;;8.23;7.22;;;16.00;99.90;;;;;;4979224;28;20042;-81
2021/06/08 05:48:21;;;;;;;7.80;6.32;;;16.10;99.90;;;;;;4970978;28;20035;-81
2021/06/08 05:50:47;;;;;;;8.20;5.97;;;16.20;99.90;;;;;;4982427;28;20035;-81
2021/06/08 05:53:16;;;;;;;7.55;6.38;;;16.40;99.90;;;;;;5002926;28;20062;-80
2021/06/08 05:55:48;;;;;;;6.70;5.75;;;16.50;99.90;;;;;;4968735;28;20039;-79
2021/06/08 05:58:14;;;;;;;8.15;5.97;;;16.60;99.90;;;;;;4969747;28;20042;-81
2021/06/08 06:00:40;;;;;;;7.93;5.50;;;16.70;99.90;;;;;;4983416;28;20027;-80
2021/06/08 06:03:06;;;;;;;6.25;5.20;;;16.80;99.90;;;;;;4968271;28;20034;-80
2021/06/08 06:05:55;;;;;;;5.82;4.68;;;16.90;99.90;;;;;;4968557;28;20027;-82
2021/06/08 06:08:21;;;;;;;7.57;5.30;;;17.00;99.90;;;;;;4964503;29;20035;-80
2021/06/08 06:10:47;;;;;;;6.50;5.75;;;17.20;99.90;;;;;;4965823;29;20039;-81
2021/06/08 06:13:17;;;;;;;6.93;5.50;;;17.40;99.90;;;;;;4963171;29;20042;-81
2021/06/08 06:15:46;;;;;;;7.85;5.82;;;17.40;99.90;;;;;;4966114;29;20075;-80
2021/06/08 06:18:18;;;;;;;7.72;4.90;;;17.30;99.90;;;;;;4965835;29;20167;-80
2021/06/08 06:20:45;;;;;;;6.53;5.85;;;17.60;99.90;;;;;;4936403;28;20034;-80
2021/06/08 06:23:14;;;;;;;6.75;4.35;;;17.40;99.90;;;;;;4949044;29;20043;-80
2021/06/08 06:25:40;;;;;;;5.32;3.67;;;17.80;99.90;;;;;;4934017;29;20035;-81
2021/06/08 06:28:06;;;;;;;4.28;3.63;;;17.60;99.90;;;;;;4965723;29;20546;-80
2021/06/08 06:30:33;;;;;;;5.05;2.97;;;17.90;99.90;;;;;;4949708;29;20034;-81
2021/06/08 06:32:59;;;;;;;4.35;3.78;;;18.20;99.90;;;;;;4949768;29;20047;-80
2021/06/08 06:35:24;;;;;;;6.05;4.43;;;18.20;99.90;;;;;;4966155;29;20165;-81
2021/06/08 06:37:52;;;;;;;4.53;3.97;;;18.20;99.90;;;;;;4965683;29;20070;-79
2021/06/08 06:40:25;;;;;;;4.45;3.95;;;18.20;99.90;;;;;;4966257;29;20035;-81
2021/06/08 06:42:54;;;;;;;5.75;5.15;;;18.50;99.90;;;;;;4965774;29;20079;-81
2021/06/08 06:45:21;;;;;;;4.30;3.90;;;18.20;99.90;;;;;;4964561;28;20045;-80
2021/06/08 06:47:48;;;;;;;6.32;3.88;;;18.70;99.90;;;;;;5002348;28;20030;-80
2021/06/08 06:50:15;;;;;;;6.75;4.90;;;18.70;99.90;;;;;;5002513;28;20062;-81
2021/06/08 06:52:44;;;;;;;5.82;4.63;;;18.70;99.90;;;;;;4987389;28;20031;-81
2021/06/08 06:55:11;;;;;;;7.45;4.78;;;18.20;99.90;;;;;;4985180;28;20078;-81
2021/06/08 06:57:40;;;;;;;5.15;4.43;;;18.30;99.90;;;;;;4985744;28;20062;-80
2021/06/08 07:00:07;;;;;;;5.88;4.50;;;18.50;99.90;;;;;;4985983;28;20121;-82
2021/06/08 07:02:34;;;;;;;4.88;4.47;;;18.30;99.90;;;;;;4987057;28;20082;-81
2021/06/08 07:05:01;;;;;;;5.20;3.85;;;18.20;99.90;;;;;;4986940;28;20035;-81
2021/06/08 07:07:28;;;;;;;5.90;4.50;;;18.70;99.90;;;;;;4986504;28;20026;-82
2021/06/08 07:09:53;;;;;;;5.38;4.28;;;19.00;99.90;;;;;;4986960;28;20054;-81
2021/06/08 07:12:23;;;;;;;7.20;5.00;;;18.90;99.90;;;;;;4986899;28;20050;-81
2021/06/08 07:14:49;;;;;;;5.85;4.53;;;18.70;99.90;;;;;;5001525;28;20037;-81
2021/06/08 07:17:16;;;;;;;4.07;3.03;;;18.80;99.90;;;;;;4985099;28;20399;-81
2021/06/08 07:19:43;;;;;;;2.80;2.35;;;19.30;99.90;;;;;;5001588;28;20033;-80
2021/06/08 07:22:10;;;;;;;2.58;1.67;;;19.70;99.90;;;;;;4986858;28;20050;-81
2021/06/08 07:24:40;;;;;;;4.03;3.08;;;19.70;99.90;;;;;;4976545;28;20049;-83
2021/06/08 07:27:06;;;;;;;3.38;2.80;;;19.40;99.90;;;;;;4986154;28;20058;-80
2021/06/08 07:29:33;;;;;;;3.80;2.95;;;19.40;99.90;;;;;;4986390;28;20019;-81
2021/06/08 07:32:04;;;;;;;3.00;2.13;;;19.60;99.90;;;;;;4984944;28;20058;-80
2021/06/08 07:34:56;;;;;;;3.65;2.22;;;19.90;99.90;;;;;;4985535;28;20483;-81
2021/06/08 07:37:25;;;;;;;2.95;2.40;;;19.60;99.90;;;;;;4986871;28;20039;-81
2021/06/08 07:40:16;;;;;;;3.33;1.67;;;19.60;99.90;;;;;;4981686;28;20031;-80
2021/06/08 07:42:49;;;;;;;4.75;2.55;;;20.20;99.90;;;;;;4969709;28;20460;-81
2021/06/08 07:45:19;;;;;;;4.50;2.45;;;20.30;99.90;;;;;;4984469;28;20030;-81
2021/06/08 07:47:48;;;;;;;;;;;20.20;99.90;;;;;;4986501;28;20030;-81
2021/06/08 07:50:14;;;;;;;4.28;2.72;;;20.00;99.90;;;;;;4986102;28;19914;-80
2021/06/08 07:52:41;;;;;;;4.53;1.98;;;19.90;99.90;;;;;;4982973;28;20074;-79
2021/06/08 07:55:08;;;;;;;3.15;1.10;;;20.70;99.90;;;;;;4995115;28;20122;-82
2021/06/08 07:57:34;;;;;;;4.30;1.83;;;21.00;99.90;;;;;;4982445;28;20034;-81
2021/06/08 08:00:00;;;;;;;3.47;1.92;;;20.80;99.90;;;;;;4977837;28;20054;-80
2021/06/08 08:02:26;;;;;;;5.55;2.00;;;21.40;99.90;;;;;;4971646;28;20127;-81
2021/06/08 08:04:53;;;;;;;2.10;1.20;;;21.20;99.90;;;;;;4995340;28;20024;-82
2021/06/08 08:07:25;;;;;;;2.20;1.35;;;21.60;99.90;;;;;;4982638;28;20050;-81
2021/06/08 08:09:51;;;;;;;2.42;2.00;;;21.60;99.90;;;;;;4988245;28;20487;-80
2021/06/08 08:12:18;;;;;;;2.75;1.48;;;21.50;99.90;;;;;;4982894;28;20034;-81
2021/06/08 08:14:46;;;;;;;2.30;1.15;;;21.40;99.90;;;;;;4986187;28;20023;-81
2021/06/08 08:17:13;;;;;;;1.60;0.90;;;21.20;99.90;;;;;;4985568;28;20133;-81
2021/06/08 08:19:39;;;;;;;3.17;1.92;;;21.30;99.90;;;;;;4984526;28;20026;-81
2021/06/08 08:22:06;;;;;;;4.18;1.92;;;21.30;99.90;;;;;;4985657;28;20027;-80
2021/06/08 08:24:32;;;;;;;5.05;3.65;;;21.00;99.90;;;;;;5000337;28;20027;-81
2021/06/08 08:27:00;;;;;;;4.15;2.47;;;20.80;99.90;;;;;;4983632;28;20031;-81
2021/06/08 08:29:26;;;;;;;2.45;1.88;;;21.10;99.90;;;;;;4968079;28;20019;-81
2021/06/08 08:31:52;;;;;;;2.55;2.00;;;21.30;99.90;;;;;;4982446;28;20061;-80
2021/06/08 08:34:18;;;;;;;3.88;3.53;;;21.30;99.90;;;;;;4966057;28;20031;-79
2021/06/08 08:36:44;;;;;;;2.63;1.30;;;21.50;99.90;;;;;;4964459;28;20175;-81
2021/06/08 08:39:11;;;;;;;2.40;1.55;;;22.30;99.90;;;;;;4968989;28;20031;-80
2021/06/08 08:41:38;;;;;;;3.45;0.98;;;22.40;99.90;;;;;;4964748;28;20139;-80
2021/06/08 08:44:07;;;;;;;2.67;1.73;;;22.30;99.90;;;;;;4982740;28;20023;-81
2021/06/08 08:46:33;;;;;;;2.58;1.48;;;22.50;99.90;;;;;;4989556;28;20030;-80
2021/06/08 08:48:59;;;;;;;2.83;1.42;;;22.60;99.90;;;;;;4989134;28;20031;-81
2021/06/08 08:51:27;;;;;;;1.73;0.90;;;23.00;99.90;;;;;;4989317;28;20029;-81
2021/06/08 08:53:54;;;;;;;5.32;3.28;;;22.50;99.90;;;;;;5001394;28;20031;-81
2021/06/08 08:56:22;;;;;;;2.63;1.90;;;22.00;99.90;;;;;;4988936;28;20115;-80
2021/06/08 08:58:48;;;;;;;2.20;2.00;;;22.70;99.90;;;;;;4989227;28;20030;-81
2021/06/08 09:01:15;;;;;;;4.10;3.10;;;22.50;99.90;;;;;;4986493;28;20037;-81
2021/06/08 09:03:40;;;;;;;4.93;2.95;;;22.10;99.90;;;;;;5001264;28;20037;-81
2021/06/08 09:09:10;;;;;;;4.32;2.50;;;22.80;99.90;;;;;;4950065;29;20042;-81
2021/06/08 09:11:43;;;;;;;4.22;2.42;;;22.40;99.90;;;;;;4966158;29;20042;-81
2021/06/08 09:14:11;;;;;;;5.20;4.32;;;22.40;99.90;;;;;;4965936;29;20042;-81
2021/06/08 09:16:37;;;;;;;3.78;3.22;;;22.40;99.90;;;;;;4965747;29;20064;-81
2021/06/08 09:19:11;;;;;;;3.08;2.08;;;22.00;99.90;;;;;;4965786;29;20047;-81
2021/06/08 09:21:43;;;;;;;3.05;1.85;;;22.20;99.90;;;;;;4965797;29;20047;-80
2021/06/08 09:24:19;;;;;;;2.80;2.10;;;22.90;99.90;;;;;;4951273;29;20055;-81
2021/06/08 09:27:06;;;;;;;3.10;2.13;;;23.20;99.90;;;;;;4950995;29;20408;-81
2021/06/08 09:29:36;;;;;;;2.95;1.92;;;22.80;99.90;;;;;;4951852;29;20039;-81
2021/06/08 09:32:26;;;;;;;4.95;3.15;;;22.80;99.90;;;;;;4949631;29;20038;-81
2021/06/08 09:34:58;;;;;;;3.80;2.42;;;22.30;99.90;;;;;;4950727;29;20030;-81
2021/06/08 09:37:36;;;;;;;2.65;1.70;;;22.90;99.90;;;;;;4965013;29;20100;-82
2021/06/08 09:40:25;;;;;;;4.28;3.00;;;22.80;99.90;;;;;;4950541;29;20092;-82
2021/06/08 09:43:12;;;;;;;3.25;1.70;;;22.70;99.90;;;;;;4950540;29;20032;-81
2021/06/08 09:45:49;;;;;;;2.25;1.23;;;23.10;99.90;;;;;;4965761;29;20035;-81
2021/06/08 09:48:17;;;;;;;2.10;0.90;;;23.40;99.90;;;;;;4965362;29;20055;-81
2021/06/08 09:50:45;;;;;;;4.00;2.35;;;23.30;99.90;;;;;;4949066;29;20035;-82
2021/06/08 09:53:23;;;;;;;3.22;1.95;;;23.30;99.90;;;;;;4964791;29;20039;-81
2021/06/08 09:55:54;;;;;;;4.55;1.35;;;24.00;99.90;;;;;;4949893;29;20035;-82
2021/06/08 09:58:20;;;;;;;2.58;1.10;;;24.50;99.90;;;;;;4964911;29;20201;-81
2021/06/08 10:01:04;;;;;;;3.03;1.38;;;24.70;99.90;;;;;;4950247;29;20031;-80
2021/06/08 10:03:38;;;;;;;2.47;1.48;;;24.50;99.90;;;;;;4950012;29;20045;-81
2021/06/08 10:06:09;;;;;;;3.90;1.60;;;24.20;99.90;;;;;;4964577;29;20404;-81
2021/06/08 10:08:37;;;;;;;3.58;1.23;;;24.30;99.90;;;;;;4964588;29;20060;-81
2021/06/08 10:11:03;;;;;;;2.28;1.40;;;24.70;99.90;;;;;;4965154;29;20035;-82
2021/06/08 10:13:28;;;;;;;2.72;1.08;;;24.40;99.90;;;;;;4964998;29;20031;-81
2021/06/08 10:16:03;;;;;;;2.83;1.10;;;24.60;99.90;;;;;;4964470;29;20031;-80
2021/06/08 10:18:44;;;;;;;2.78;1.30;;;24.30;99.90;;;;;;4964502;29;20090;-82
2021/06/08 10:21:10;;;;;;;1.75;0.98;;;24.00;99.90;;;;;;4964421;29;20187;-81
2021/06/08 10:23:36;;;;;;;1.95;1.10;;;24.50;99.90;;;;;;4964310;29;20036;-81
2021/06/08 10:26:06;;;;;;;2.35;1.20;;;25.00;99.90;;;;;;4949628;29;20032;-80
2021/06/08 10:28:32;;;;;;;2.47;1.42;;;24.70;99.90;;;;;;4948498;29;20036;-80
2021/06/08 10:30:59;;;;;;;2.60;0.90;;;24.10;99.90;;;;;;4949642;29;20120;-81
2021/06/08 10:33:26;;;;;;;3.75;2.55;;;24.60;99.90;;;;;;4949566;29;20477;-82
2021/06/08 10:35:53;;;;;;;3.30;2.50;;;23.90;99.90;;;;;;4949368;29;20032;-82
2021/06/08 10:38:20;;;;;;;3.80;2.10;;;24.40;99.90;;;;;;4963933;29;20048;-81
2021/06/08 10:40:48;;;;;;;2.22;1.45;;;24.20;99.90;;;;;;4949892;29;20437;-81
2021/06/08 10:43:20;;;;;;;4.10;3.17;;;24.90;99.90;;;;;;4963939;29;20032;-82
2021/06/08 10:45:47;;;;;;;6.95;4.65;;;24.10;99.90;;;;;;4964303;29;20144;-82
2021/06/08 10:48:18;;;;;;;5.25;4.35;;;23.30;99.90;;;;;;4947643;29;20373;-82
2021/06/08 10:50:45;;;;;;;3.75;2.95;;;23.30;99.90;;;;;;4947920;29;20063;-81
2021/06/08 10:53:34;;;;;;;3.67;1.55;;;23.90;99.90;;;;;;4963728;29;20031;-81
2021/06/08 10:56:01;;;;;;;2.63;1.77;;;24.40;99.90;;;;;;4963990;29;20110;-81
2021/06/08 10:59:09;;;;;;;3.50;2.53;;;24.70;99.90;;;;;;4947750;29;20040;-81
2021/06/08 11:01:39;;;;;;;4.10;2.07;;;24.90;99.90;;;;;;4945775;29;20046;-80
2021/06/08 11:04:24;;;;;;;;;;;25.30;99.90;;;;;;4944799;29;20327;-81
2021/06/08 11:06:52;;;;;;;3.65;2.58;;;24.60;99.90;;;;;;4963096;29;19919;-81
2021/06/08 11:09:23;;;;;;;2.58;2.30;;;24.20;99.90;;;;;;4962561;28;20038;-81
2021/06/08 11:11:49;;;;;;;2.67;2.25;;;24.70;99.90;;;;;;4948717;29;20028;-81
2021/06/08 11:14:35;;;;;;;2.65;1.63;;;24.50;99.90;;;;;;4963125;29;20036;-81
2021/06/08 11:17:10;;;;;;;3.85;2.25;;;25.40;99.90;;;;;;4963302;29;20063;-82
2021/06/08 11:19:45;;;;;;;2.08;1.30;;;24.60;99.90;;;;;;4963122;29;20031;-83
2021/06/08 11:22:12;;;;;;;2.95;2.05;;;25.10;99.90;;;;;;4963396;29;20035;-83
2021/06/08 11:24:44;;;;;;;4.93;3.03;;;25.20;99.90;;;;;;4963159;29;20150;-81
2021/06/08 11:27:10;;;;;;;4.80;3.22;;;24.50;99.90;;;;;;4948576;29;20040;-82
2021/06/08 11:29:43;;;;;;;4.72;2.67;;;24.40;99.90;;;;;;4948467;29;20094;-85
2021/06/08 11:32:09;;;;;;;2.58;1.88;;;25.20;99.90;;;;;;4948209;29;20129;-83
2021/06/08 11:35:17;;;;;;;3.08;2.30;;;25.10;99.90;;;;;;4946499;29;20091;-82
2021/06/08 11:38:06;;;;;;;3.30;2.10;;;25.50;99.90;;;;;;4962689;28;20048;-82
2021/06/08 11:40:38;;;;;;;2.95;1.30;;;25.80;99.90;;;;;;4948280;28;20053;-82
2021/06/08 11:43:05;;;;;;;3.15;1.77;;;26.50;99.90;;;;;;4948038;29;20046;-82
2021/06/08 11:45:33;;;;;;;2.90;1.52;;;26.50;99.90;;;;;;4948206;29;20059;-83
2021/06/08 11:47:59;;;;;;;2.60;1.52;;;26.40;99.90;;;;;;4962655;29;20063;-82
2021/06/08 11:50:38;;;;;;;2.95;2.40;;;26.50;99.90;;;;;;4947239;29;20046;-82
2021/06/08 11:53:09;;;;;;;4.28;2.13;;;26.40;99.90;;;;;;4947862;29;20027;-83
2021/06/08 11:55:35;;;;;;;3.45;2.88;;;25.50;99.90;;;;;;4948011;29;20073;-82
2021/06/08 11:58:01;;;;;;;3.67;2.95;;;25.50;99.90;;;;;;4946345;29;20239;-82
2021/06/08 12:00:53;;;;;;;2.97;2.40;;;25.20;99.90;;;;;;4948157;29;20276;-82
2021/06/08 12:03:35;;;;;;;2.88;2.20;;;25.40;99.90;;;;;;4947024;29;20055;-83
2021/06/08 12:06:02;;;;;;;3.80;2.58;;;25.80;99.90;;;;;;4942264;29;20047;-82
2021/06/08 12:08:33;;;;;;;4.90;4.40;;;25.20;99.90;;;;;;4945996;29;20149;-82
2021/06/08 12:11:16;;;;;;;4.50;2.75;;;24.20;99.90;;;;;;4962847;29;20256;-83
2021/06/08 12:13:43;;;;;;;2.65;1.65;;;23.80;99.90;;;;;;4962480;29;20032;-82
2021/06/08 12:16:16;;;;;;;3.88;2.13;;;23.90;99.90;;;;;;4947809;29;20046;-83
2021/06/08 12:18:42;;;;;;;2.47;1.08;;;24.20;99.90;;;;;;4947608;29;20054;-82
2021/06/08 12:21:16;;;;;;;5.15;1.33;;;25.20;99.90;;;;;;4962445;29;20031;-83
2021/06/08 12:23:42;;;;;;;3.05;2.47;;;25.40;99.90;;;;;;4962200;29;20038;-81
2021/06/08 12:26:21;;;;;;;4.03;3.63;;;25.50;99.90;;;;;;4947771;29;20023;-82
2021/06/08 12:29:03;;;;;;;3.83;3.20;;;24.20;99.90;;;;;;4947952;29;20063;-82
2021/06/08 12:31:29;;;;;;;3.78;2.72;;;23.40;99.90;;;;;;4947592;29;20123;-82
2021/06/08 12:33:57;;;;;;;2.75;1.83;;;23.50;99.90;;;;;;4947390;29;20034;-82
2021/06/08 12:36:23;;;;;;;4.97;3.30;;;23.90;99.90;;;;;;4947604;29;20042;-82
2021/06/08 12:38:56;;;;;;;3.05;2.03;;;24.50;99.90;;;;;;4947640;29;20047;-82
2021/06/08 12:41:27;;;;;;;2.60;1.50;;;25.00;99.90;;;;;;4947790;29;20068;-82
2021/06/08 12:43:57;;;;;;;3.28;1.70;;;25.30;99.90;;;;;;4946450;29;20044;-82
2021/06/08 12:46:28;;;;;;;2.85;1.58;;;25.70;99.90;;;;;;4947690;29;20035;-82
2021/06/08 12:49:06;;;;;;;2.20;1.60;;;26.10;99.90;;;;;;4946699;29;20032;-83
2021/06/08 12:51:36;;;;;;;1.75;1.00;;;26.30;99.90;;;;;;4946615;29;20047;-82
2021/06/08 12:54:03;;;;;;;2.45;1.05;;;26.50;99.90;;;;;;4947500;29;20038;-83
2021/06/08 12:56:29;;;;;;;2.60;1.63;;;26.00;99.90;;;;;;4947605;29;20103;-84
2021/06/08 12:58:55;;;;;;;2.70;1.73;;;25.20;99.90;;;;;;4962397;29;20040;-87
2021/06/08 13:01:21;;;;;;;3.10;1.92;;;24.90;99.90;;;;;;4947602;29;20042;-83